createdAt,value
2023-03-11T00:04:27.366Z,50.17
2023-03-11T00:09:33.612Z,52.42
2023-03-11T00:14:39.790Z,54.78
2023-03-11T00:19:45.984Z,58.40
2023-03-11T00:24:51.896Z,47.95
2023-03-11T00:35:03.619Z,59.30
2023-03-11T00:45:19.117Z,53.92
2023-03-11T00:50:29.243Z,47.25
2023-03-11T00:55:37.546Z,53.75
2023-03-11T01:01:33.842Z,48.40
2023-03-11T01:07:04.389Z,56.88
2023-03-11T01:12:36.376Z,52.90
2023-03-11T01:17:42.361Z,54.17
2023-03-11T01:22:48.723Z,47.40
2023-03-11T01:27:54.890Z,49.17
2023-03-11T01:33:01.043Z,51.25
2023-03-11T01:38:07.340Z,47.60
2023-03-11T01:43:41.332Z,51.88
2023-03-11T01:48:58.881Z,50.03
2023-03-11T01:54:25.674Z,48.22
2023-03-11T01:59:40.051Z,50.75
2023-03-11T02:04:46.235Z,41.88
2023-03-11T02:09:53.542Z,47.55
2023-03-11T02:15:00.650Z,48.70
2023-03-11T02:25:18.150Z,46.38
2023-03-11T02:30:28.207Z,48.22
2023-03-11T02:35:34.486Z,46.95
2023-03-11T02:40:51.277Z,50.70
2023-03-11T02:45:59.810Z,45.10
2023-03-11T02:51:06.858Z,49.08
2023-03-11T02:56:14.369Z,47.05
2023-03-11T03:01:21.232Z,45.00
2023-03-11T03:06:30.232Z,45.55
2023-03-11T03:11:36.710Z,45.15
2023-03-11T03:16:43.267Z,44.15
2023-03-11T03:21:51.481Z,40.20
2023-03-11T03:26:59.902Z,42.38
2023-03-11T03:32:06.602Z,36.72
2023-03-11T03:37:19.557Z,39.88
2023-03-11T03:42:30.324Z,39.63
2023-03-11T03:47:38.180Z,37.67
2023-03-11T03:52:44.434Z,38.40
2023-03-11T03:57:50.734Z,35.13
2023-03-11T04:02:58.948Z,36.65
2023-03-11T04:08:24.881Z,30.48
2023-03-11T04:13:31.248Z,34.72
2023-03-11T04:18:38.507Z,31.98
2023-03-11T04:23:47.547Z,31.30
2023-03-11T04:28:56.465Z,32.40
2023-03-11T04:34:05.279Z,34.22
2023-03-11T04:39:12.904Z,26.52
2023-03-11T04:44:21.861Z,31.17
2023-03-11T04:49:29.586Z,25.63
2023-03-11T04:54:36.294Z,38.35
2023-03-11T04:59:43.078Z,42.95
2023-03-11T05:04:50.974Z,38.17
2023-03-11T05:09:58.237Z,36.35
2023-03-11T05:15:04.806Z,50.80
2023-03-11T05:20:11.737Z,46.00
2023-03-11T05:25:19.603Z,45.85
2023-03-11T05:30:26.498Z,46.92
2023-03-11T05:35:33.330Z,51.17
2023-03-11T05:40:40.464Z,52.22
2023-03-11T05:45:47.178Z,47.03
2023-03-11T05:50:53.962Z,42.80
2023-03-11T05:56:03.957Z,47.17
2023-03-11T06:01:15.123Z,46.08
2023-03-11T06:06:22.455Z,42.63
2023-03-11T06:11:28.969Z,19.80
2023-03-11T06:16:35.347Z,26.63
2023-03-11T06:21:42.988Z,28.20
2023-03-11T06:26:59.805Z,21.40
2023-03-11T06:32:09.508Z,30.13
2023-03-11T06:37:16.583Z,30.13
2023-03-11T06:42:25.597Z,32.17
2023-03-11T06:47:35.369Z,30.88
2023-03-11T06:52:41.789Z,33.83
2023-03-11T06:57:48.695Z,31.77
2023-03-11T07:02:55.628Z,33.78
2023-03-11T07:08:03.316Z,34.15
2023-03-11T07:13:10.295Z,33.30
2023-03-11T07:18:17.988Z,33.45
2023-03-11T07:23:25.621Z,34.25
2023-03-11T07:28:31.949Z,34.92
2023-03-11T07:33:38.199Z,34.80
2023-03-11T07:38:44.817Z,32.35
2023-03-11T07:43:50.763Z,33.78
2023-03-11T07:48:57.110Z,34.63
2023-03-11T07:54:04.184Z,32.97
2023-03-11T07:59:11.063Z,31.70
2023-03-11T08:04:18.830Z,33.33
2023-03-11T08:09:26.213Z,32.90
2023-03-11T08:14:33.026Z,24.85
2023-03-11T08:19:39.639Z,32.47
2023-03-11T08:24:45.565Z,34.25
2023-03-11T08:34:58.248Z,33.08
2023-03-11T08:40:07.645Z,34.97
2023-03-11T08:45:14.802Z,41.10
2023-03-11T08:50:22.641Z,39.92
2023-03-11T08:55:29.836Z,44.38
2023-03-11T09:00:36.323Z,43.72
2023-03-11T09:05:43.215Z,43.83
2023-03-11T09:10:49.901Z,46.63
2023-03-11T09:15:56.562Z,43.00
2023-03-11T09:21:03.556Z,48.67
2023-03-11T09:26:09.597Z,49.60
2023-03-11T09:36:23.247Z,45.17
2023-03-11T09:41:32.848Z,58.95
2023-03-11T09:46:51.075Z,61.28
2023-03-11T09:52:17.709Z,49.78
2023-03-11T10:02:49.932Z,61.08
2023-03-11T10:08:14.987Z,54.72
2023-03-11T10:14:13.537Z,57.13
2023-03-11T10:19:54.856Z,62.65
2023-03-11T10:25:33.409Z,56.60
2023-03-11T10:31:02.716Z,52.10
2023-03-11T10:36:18.940Z,50.08
2023-03-11T10:46:32.751Z,47.00
2023-03-11T10:51:38.859Z,46.08
2023-03-11T11:01:59.510Z,50.38
2023-03-11T11:07:32.859Z,49.23
2023-03-11T11:12:47.810Z,47.78
2023-03-11T11:17:57.264Z,52.97
2023-03-11T11:23:05.756Z,51.85
2023-03-11T11:28:23.111Z,52.15
2023-03-11T11:33:59.474Z,50.38
2023-03-11T11:39:14.121Z,52.22
2023-03-11T11:44:24.125Z,48.47
2023-03-11T11:49:37.605Z,55.13
2023-03-11T12:00:33.887Z,62.92
2023-03-11T12:06:06.252Z,54.15
2023-03-11T12:11:26.342Z,62.90
2023-03-11T12:16:43.427Z,61.03
2023-03-11T12:22:35.646Z,59.22
2023-03-11T12:28:02.818Z,62.45
2023-03-11T12:33:21.175Z,66.97
2023-03-11T12:38:42.251Z,64.28
2023-03-11T12:43:49.588Z,65.60
2023-03-11T12:49:17.777Z,66.22
2023-03-11T12:54:38.701Z,56.88
2023-03-11T13:00:24.743Z,57.70
2023-03-11T13:05:49.224Z,60.33
2023-03-11T13:10:58.894Z,64.13
2023-03-11T13:16:17.027Z,72.82
2023-03-11T13:21:44.019Z,61.92
2023-03-11T13:27:12.005Z,59.35
2023-03-11T13:32:36.076Z,61.33
2023-03-11T13:38:12.144Z,59.90
2023-03-11T13:43:28.586Z,57.00
2023-03-11T13:48:54.242Z,48.20
2023-03-11T13:54:50.429Z,57.22
2023-03-11T14:00:36.183Z,63.35
2023-03-11T14:06:09.683Z,58.85
2023-03-11T14:11:41.157Z,57.30
2023-03-11T14:16:56.993Z,56.43
2023-03-11T14:22:18.061Z,58.75
2023-03-11T14:27:34.544Z,59.42
2023-03-11T14:32:47.038Z,62.63
2023-03-11T14:38:02.594Z,60.47
2023-03-11T14:43:52.322Z,62.67
2023-03-11T14:49:14.336Z,62.20
2023-03-11T14:59:57.588Z,60.40
2023-03-11T15:05:29.822Z,62.72
2023-03-11T15:10:39.368Z,61.63
2023-03-11T15:15:47.947Z,62.78
2023-03-11T15:21:24.417Z,63.95
2023-03-11T15:26:34.091Z,62.70
2023-03-11T15:31:46.837Z,63.95
2023-03-11T15:36:52.841Z,62.08
2023-03-11T15:47:26.018Z,76.82
2023-03-11T15:52:37.784Z,66.63
2023-03-11T15:57:44.431Z,69.93
2023-03-11T16:02:52.729Z,63.30
2023-03-11T16:07:59.451Z,67.57
2023-03-11T16:13:06.706Z,71.35
2023-03-11T16:18:13.745Z,72.93
2023-03-11T16:23:27.204Z,70.72
2023-03-11T16:28:34.196Z,70.38
2023-03-11T16:33:40.532Z,62.40
2023-03-11T16:38:50.158Z,71.70
2023-03-11T16:44:25.598Z,66.47
2023-03-11T16:58:07.490Z,68.90
2023-03-11T17:02:31.920Z,76.22
2023-03-11T17:07:39.705Z,53.83
2023-03-11T17:12:46.342Z,65.72
2023-03-11T17:17:53.224Z,68.97
2023-03-11T17:22:59.250Z,59.97
2023-03-11T17:28:05.116Z,57.78
2023-03-11T17:33:11.100Z,59.13
2023-03-11T17:38:17.590Z,57.17
2023-03-11T17:43:23.699Z,58.45
2023-03-11T17:48:29.780Z,56.85
2023-03-11T17:58:41.104Z,55.63
2023-03-11T18:03:47.152Z,56.75
2023-03-11T18:08:53.990Z,55.67
2023-03-11T18:14:00.180Z,56.20
2023-03-11T18:19:06.202Z,54.40
2023-03-11T18:24:11.838Z,55.90
2023-03-11T18:29:17.952Z,57.00
2023-03-11T18:34:24.879Z,54.35
2023-03-11T18:39:30.492Z,51.83
2023-03-11T18:44:36.989Z,51.38
2023-03-11T18:49:42.609Z,51.40
2023-03-11T18:54:48.087Z,51.37
2023-03-11T18:59:53.602Z,53.77
2023-03-11T19:04:59.345Z,54.27
2023-03-11T19:10:05.323Z,55.70
2023-03-11T19:15:11.671Z,54.95
2023-03-11T19:20:17.205Z,56.22
2023-03-11T19:25:28.007Z,54.57
2023-03-11T19:30:33.885Z,57.58
2023-03-11T19:35:39.930Z,56.53
2023-03-11T19:45:52.111Z,56.33
2023-03-11T19:50:57.547Z,55.83
2023-03-11T19:56:05.507Z,52.97
2023-03-11T20:01:21.497Z,50.40
2023-03-11T20:11:32.693Z,52.35
2023-03-11T20:16:38.560Z,51.72
2023-03-11T20:21:45.895Z,47.83
2023-03-11T20:26:52.097Z,50.97
2023-03-11T20:37:03.213Z,52.60
2023-03-11T20:42:09.457Z,48.28
2023-03-11T20:47:14.995Z,47.22
2023-03-11T20:52:20.505Z,51.17
2023-03-11T20:57:26.702Z,50.25
2023-03-11T21:02:35.226Z,51.83
2023-03-11T21:07:41.444Z,51.45
2023-03-11T21:17:52.545Z,50.13
2023-03-11T21:28:04.010Z,54.10
2023-03-11T21:33:10.278Z,45.45
2023-03-11T21:38:17.426Z,51.22
2023-03-11T21:43:23.810Z,50.17
2023-03-11T21:48:30.082Z,49.28
2023-03-11T21:53:37.819Z,51.15
2023-03-11T21:58:44.614Z,50.10
2023-03-11T22:03:50.453Z,48.55
2023-03-11T22:08:56.534Z,48.85
2023-03-11T22:19:10.465Z,45.67
2023-03-11T22:24:16.296Z,47.72
2023-03-11T22:29:22.133Z,45.58
2023-03-11T22:34:27.719Z,50.40
2023-03-11T22:39:33.830Z,44.37
2023-03-11T22:44:39.525Z,57.08
2023-03-11T22:49:45.319Z,51.78
2023-03-11T22:54:51.510Z,49.08
2023-03-11T22:59:57.474Z,57.95
2023-03-11T23:05:03.411Z,59.80
2023-03-11T23:10:11.352Z,57.00
2023-03-11T23:15:19.892Z,54.40
2023-03-11T23:20:25.478Z,52.47
2023-03-11T23:25:31.515Z,51.17
2023-03-11T23:35:44.318Z,47.90
2023-03-11T23:40:50.291Z,55.25
2023-03-11T23:45:56.052Z,49.90
2023-03-11T23:51:03.815Z,51.20
2023-03-11T23:56:18.688Z,55.08
